EKFU weather

Fur Airport
Fur, Central Jutland, Denmark

Public forecast

Using degrees Celsius for public forecast. Weather courtesy of forecast.io.

METAR (pilot weather report)

Closest report is Karup Airport, 32.0 nm (59.2 km) S. Retrieved 2019/05/25 22:20 UTC (18 minutes ago):

EKKA 252220Z AUTO 25011KT 9999 BKN017/// 10/07 Q1010

TAF (pilot weather forecast)

Closest forecast is Karup Airport, 32.0 nm (59.2 km) S. Retrieved 2019/05/25 21:35 UTC (1 hour ago):

TAF EKKA 252018Z 2521/2621 25015KT 9999 BKN020 TEMPO 2521/2608 27012G22KT 7000 -SHRA BKN014 TEMPO 2608/2615 27010G22KT TEMPO 2618/2621 4000 -RADZ BR BKN008